• Join FlightAware (Why Join?)
  • Login
  • US Flag 
03:02PM EST


 

Airport Tracker/Info


-or-


 

Live Flight TrackerFlight Track Log ✈ N600WS ✈ 28-Apr-2013 ✈ KSCH - KMGY

Flight Track Log - Related Links

Times and Time Zones

All times are in EDT time to prevent confusion due to time zone crossing. See the N600WS flight status page for this flight to view local times or setup timezone preferences in your user account.

Time Position Orientation Groundspeed Altitude Reporting Facility
EDT Latitude Longitude Course Direction KTS MPH feet Rate Location/Type
02:43PM 42.6575 -74.6903 251° West 204 235 14,500  Level Boston Center
02:44PM 42.6375 -74.7517 246° West 204 235 14,600  Climbing Boston Center
02:45PM 42.6172 -74.8186 248° West 209 241 14,500 -60 Descending Boston Center
02:46PM 42.5883 -74.8992 244° Southwest 214 246 14,500  Level Boston Center
02:47PM 42.5639 -74.9689 245° Southwest 209 241 14,500  Level Boston Center
02:48PM 42.8495 -73.9407 251° West  Level Estimated
02:48PM 42.5458 -75.0386 251° West 209 241 14,500  Level Boston Center
02:49PM 42.5253 -75.1108 249° West 209 241 14,500  Level Boston Center
02:50PM 42.5006 -75.1917 247° West 209 241 14,500  Level Boston Center
02:51PM 42.4753 -75.2833 250° West 209 241 14,500  Level Boston Center
02:52PM 42.4547 -75.3556 249° West 209 241 14,500  Level Boston Center
02:53PM 42.4339 -75.4306 249° West 209 241 14,500  Level Boston Center
02:54PM 42.4111 -75.5053 248° West 209 241 14,500  Level Boston Center
02:55PM 42.3903 -75.5775 249° West 209 241 14,500  Level Boston Center
02:57PM 42.3639 -75.7100 255° West 208 239 14,500  Level New York Center
02:58PM 42.3483 -75.7844 254° West 208 239 14,500  Level New York Center
02:59PM 42.3369 -75.8592 258° West 208 239 14,600 -60 Climbing New York Center
03:00PM 42.3211 -75.9367 255° West 208 239 14,400 -60 Descending New York Center
03:01PM 42.2992 -76.0106 248° West 208 239 14,500  Climbing New York Center
03:02PM 42.2814 -76.0819 251° West 208 239 14,500  Level New York Center
03:03PM 42.2614 -76.1533 249° West 208 239 14,500  Level New York Center
03:04PM 42.2417 -76.2244 249° West 208 239 14,500  Level New York Center
03:05PM 42.2175 -76.2953 245° Southwest 208 239 14,500  Level New York Center
03:06PM 42.1975 -76.3664 249° West 208 239 14,500  Level New York Center
03:07PM 42.1753 -76.4400 248° West 208 239 14,500  Level New York Center
03:08PM 42.1514 -76.5078 245° Southwest 208 239 14,600  Climbing New York Center
03:09PM 42.1353 -76.5792 253° West 208 239 14,500 -60 Descending New York Center
03:10PM 42.1153 -76.6500 249° West 208 239 14,500  Level New York Center
03:11PM 42.0969 -76.7239 252° West 208 239 14,500  Level New York Center
03:12PM 42.0792 -76.7894 250° West 208 239 14,500 -60 Level New York Center
03:13PM 42.0586 -76.8631 249° West 208 239 14,400 -60 Descending New York Center
03:14PM 42.0386 -76.9308 248° West 208 239 14,400 -300 Level New York Center
03:14PM 42.0208 -76.9942 249° West 207 238 14,000 -600 Descending Cleveland Center
03:15PM 41.9978 -77.0653 246° West 213 245 13,400 -660 Descending Cleveland Center
03:16PM 41.9711 -77.1422 245° Southwest 218 251 12,700 -900 Descending Cleveland Center
03:17PM 41.9486 -77.2272 250° West 232 267 11,700 -1,080 Descending Cleveland Center
03:18PM 41.9239 -77.3150 249° West 245 282 10,600 -1,080 Descending Cleveland Center
03:19PM 41.8994 -77.4028 250° West 250 288 9,600 -780 Descending Cleveland Center
03:20PM 41.8767 -77.4903 251° West 255 293 9,100 -120 Descending Cleveland Center
03:21PM 41.8578 -77.5608 250° West 243 280 9,400 -360 Climbing Cleveland Center
03:22PM 41.8389 -77.6397 252° West 230 265 8,400 -1,320 Descending Cleveland Center
03:23PM 41.8075 -77.7164 241° Southwest 237 273 6,800 -1,020 Descending Cleveland Center
03:24PM 41.7822 -77.7956 247° West 237 273 6,400 -360 Descending Cleveland Center
03:25PM 41.7611 -77.8689 249° West 232 267 6,100 -300 Descending Cleveland Center
03:26PM 41.7419 -77.9422 251° West 221 254 5,900 -300 Descending Cleveland Center
03:27PM 41.7167 -78.0128 244° Southwest 215 247 5,600 -60 Descending Cleveland Center
03:28PM 41.7014 -78.0856 254° West 215 247 5,800 60 Climbing Cleveland Center
03:29PM 41.6819 -78.1503 248° West 209 241 5,800 360 Level Cleveland Center
03:30PM 41.6628 -78.2233 251° West 198 228 6,600 1,140 Climbing Cleveland Center
03:31PM 41.6450 -78.2797 247° West 186 214 8,200 1,380 Climbing Cleveland Center
03:32PM 41.6336 -78.3272 252° West 163 188 9,400 1,080 Climbing Cleveland Center
03:33PM 41.6197 -78.3750 249° West 149 171 10,400 900 Climbing Cleveland Center
03:34PM 41.6083 -78.4336 255° West 149 171 11,300 1,080 Climbing Cleveland Center
03:35PM 41.6033 -78.4894 263° West 155 178 12,600 1,080 Climbing Cleveland Center
03:36PM 41.5875 -78.5425 248° West 155 178 13,500 900 Climbing Cleveland Center
03:37PM 41.5653 -78.5878 237° Southwest 155 178 14,500 300 Climbing Cleveland Center
03:38PM 41.5264 -78.6278 218° Southwest 155 178 14,200 -300 Descending Cleveland Center
03:39PM 41.4919 -78.6897 233° Southwest 181 208 14,000 -180 Descending Cleveland Center
03:40PM 41.4597 -78.7544 236° Southwest 204 235 13,900 -120 Descending Cleveland Center
03:41PM 41.4358 -78.8189 244° Southwest 210 242 13,800 -60 Descending Cleveland Center
03:42PM 41.4158 -78.8747 244° Southwest 197 227 13,800 -60 Level Cleveland Center
03:43PM 41.3978 -78.9333 248° West 184 212 13,700 540 Descending Cleveland Center
03:44PM 41.3839 -78.9864 251° West 168 193 14,900 1,260 Climbing Cleveland Center
03:45PM 41.3700 -79.0336 249° West 157 181 16,200 1,140 Climbing Cleveland Center
03:46PM 41.3625 -79.0864 259° West 152 175 17,200 1,080 Climbing Cleveland Center
03:47PM 41.3547 -79.1392 259° West 152 175 18,400 1,080 Climbing Cleveland Center
03:48PM 41.3450 -79.1947 257° West 152 175 19,400 720 Climbing Cleveland Center
03:49PM 41.3353 -79.2586 259° West 158 182 19,900 180 Climbing Cleveland Center
03:50PM 41.3194 -79.3308 254° West 184 212 19,800  Descending Cleveland Center
03:51PM 41.2931 -79.4031 244° Southwest 204 235 20,000  Climbing Cleveland Center
03:52PM 41.2731 -79.4753 250° West 211 243 19,900 -60 Descending Cleveland Center
03:53PM 41.2422 -79.5392 237° Southwest 211 243 19,900 -60 Level Cleveland Center
03:54PM 41.2158 -79.6058 242° Southwest 211 243 19,800  Descending Cleveland Center
03:55PM 41.1933 -79.6753 247° West 211 243 19,900  Climbing Cleveland Center
03:56PM 41.1711 -79.7472 248° West 205 236 19,900  Level Cleveland Center
03:57PM 41.1506 -79.8139 248° West 205 236 20,000  Climbing Cleveland Center
03:58PM 41.1281 -79.8831 247° West 205 236 20,000  Level Cleveland Center
03:59PM 41.1056 -79.9519 247° West 210 242 20,000  Level Cleveland Center
04:00PM 41.0789 -80.0211 243° Southwest 210 242 20,000  Level Cleveland Center
04:01PM 41.0522 -80.0875 242° Southwest 210 242 20,000  Level Cleveland Center
04:02PM 41.0253 -80.1536 242° Southwest 210 242 20,100  Climbing Cleveland Center
04:03PM 41.0025 -80.2308 249° West 217 250 20,000 -60 Descending Cleveland Center
04:04PM 40.9861 -80.3053 254° West 217 250 20,000 -60 Level Cleveland Center
04:05PM 40.9675 -80.3797 252° West 217 250 19,900 -60 Descending Cleveland Center
04:06PM 40.9467 -80.4511 249° West 217 250 19,900  Level Cleveland Center
04:07PM 40.9261 -80.5256 250° West 217 250 19,900 -300 Level Cleveland Center
04:08PM 40.9053 -80.5969 249° West 217 250 19,400 -660 Descending Cleveland Center
04:09PM 40.8781 -80.6764 246° West 217 250 18,600 -900 Descending Cleveland Center
04:10PM 40.8508 -80.7478 243° Southwest 222 255 17,600 -1,020 Descending Cleveland Center
04:11PM 40.8153 -80.8217 238° Southwest 228 262 16,600 -1,080 Descending Cleveland Center
04:12PM 40.7775 -80.8903 234° Southwest 233 268 15,500 -1,020 Descending Cleveland Center
04:13PM 40.7481 -80.9669 243° Southwest 233 268 14,600 -780 Descending Cleveland Center
04:14PM 40.7208 -81.0433 245° Southwest 233 268 14,000 -360 Descending Cleveland Center
04:15PM 40.6997 -81.1225 251° West 234 269 13,900 -60 Descending Cleveland Center
04:16PM 40.6825 -81.1908 252° West 220 253 13,900  Level Cleveland Center
04:17PM 40.6633 -81.2564 249° West 201 231 13,900  Level Cleveland Center
04:18PM 40.6442 -81.3219 249° West 201 231 14,000  Climbing Cleveland Center
04:19PM 40.6167 -81.3928 243° Southwest 201 231 13,900 -60 Descending Cleveland Center
04:21PM 40.5725 -81.5175 245° Southwest 195 224 13,900 60 Level Indianapolis Center
04:22PM 40.5456 -81.5789 240° Southwest 193 222 14,100 120 Climbing Indianapolis Center
04:23PM 40.5264 -81.6456 249° West 195 224 14,200  Climbing Indianapolis Center
04:25PM 40.5014 -81.7064 242° Southwest 189 217 14,200 -60 Level Indianapolis Center
04:26PM 40.4789 -81.7708 245° Southwest 190 219 14,100 -120 Descending Indianapolis Center
04:27PM 40.4614 -81.8383 251° West 193 222 14,000  Descending Indianapolis Center
04:28PM 40.4347 -81.8972 239° Southwest 186 214 14,100 -60 Climbing Indianapolis Center
04:29PM 40.4086 -81.9561 240° Southwest 183 211 13,900 -60 Descending Indianapolis Center
04:30PM 40.3889 -82.0372 252° West 192 221 14,000  Climbing Indianapolis Center
04:31PM 40.3758 -82.1058 256° West 192 221 14,000  Level Indianapolis Center
04:32PM 40.3556 -82.1725 248° West 194 223 14,000 -60 Level Indianapolis Center
04:33PM 40.3286 -82.2367 241° Southwest 197 227 13,900 -60 Descending Indianapolis Center
04:34PM 40.3011 -82.2983 240° Southwest 194 223 13,900  Level Indianapolis Center
04:35PM 40.2733 -82.3625 240° Southwest 198 228 13,900  Level Indianapolis Center
04:36PM 40.2478 -82.4292 243° Southwest 201 231 13,900  Level Indianapolis Center
04:37PM 40.2269 -82.5000 249° West 203 234 13,900  Level Indianapolis Center
04:38PM 40.2031 -82.5786 248° West 198 228 13,900  Level Indianapolis Center
04:39PM 40.1781 -82.6447 244° Southwest 200 230 14,000 60 Climbing Indianapolis Center
04:40PM 40.1522 -82.7092 242° Southwest 198 228 14,100  Climbing Indianapolis Center
04:41PM 40.1264 -82.7767 243° Southwest 203 234 14,000 -60 Descending Indianapolis Center
04:42PM 40.0983 -82.8428 241° Southwest 207 238 14,000  Level Indianapolis Center
04:43PM 40.0700 -82.9083 241° Southwest 205 236 14,000  Level Indianapolis Center
04:44PM 40.0433 -82.9742 242° Southwest 205 236 14,000  Level Indianapolis Center
04:45PM 40.0231 -83.0600 253° West 208 239 14,000 -60 Level Indianapolis Center
04:46PM 40.0025 -83.1278 248° West 204 235 13,900 -60 Descending Indianapolis Center
04:47PM 39.9772 -83.1958 244° Southwest 205 236 13,900 60 Level Indianapolis Center
04:48PM 39.9525 -83.2617 244° Southwest 203 234 14,100 -240 Climbing Indianapolis Center
04:49PM 39.9281 -83.3206 242° Southwest 213 245 13,500 -900 Descending Indianapolis Center
04:50PM 39.9033 -83.3744 239° Southwest 230 265 12,700 -900 Descending Indianapolis Center
04:50PM 39.8908 -83.3989 236° Southwest 225 259 12,400 -1,320 Descending Indianapolis Center
04:51PM 39.8683 -83.4544 242° Southwest 241 277 11,400 -1,200 Descending Indianapolis Center
04:51PM 39.8603 -83.4747 243° Southwest 237 273 11,200 -1,200 Descending Indianapolis Center
04:52PM 39.8433 -83.5358 250° West 234 269 10,200 -1,560 Descending Indianapolis Center
04:52PM 39.8350 -83.5606 246° West 230 265 9,600 -1,320 Descending Indianapolis Center
04:53PM 39.8197 -83.6008 244° Southwest 200 230 8,900 -1,200 Descending Indianapolis Center
04:53PM 39.8108 -83.6269 246° West 210 242 8,400 -1,380 Descending Indianapolis Center
04:54PM 39.8003 -83.6689 252° West 190 219 7,500 -1,500 Descending Indianapolis Center
04:55PM 39.7942 -83.6919 251° West 192 221 6,900 -1,620 Descending Indianapolis Center
04:55PM 39.7769 -83.7286 239° Southwest 190 219 5,900 -1,560 Descending Indianapolis Center
04:56PM 39.7678 -83.7519 243° Southwest 192 221 5,300 -1,680 Descending Indianapolis Center
04:56PM 39.7575 -83.7911 251° West 191 220 4,200 -1,620 Descending Indianapolis Center
04:57PM 39.7431 -83.8267 242° Southwest 192 221 3,700 -420 Descending Indianapolis Center
04:57PM 39.7336 -83.8561 247° West 185 213 3,800 240 Climbing Indianapolis Center
04:58PM 39.7283 -83.8864 257° West 183 211 4,000 60 Climbing Indianapolis Center
04:58PM 39.7292 -83.9150 272° West 173 199 3,900 -420 Descending Indianapolis Center
04:59PM 39.7303 -83.9475 273° West 171 197 3,600 -900 Descending Indianapolis Center
04:59PM 39.7389 -83.9814 288° West 213 245 3,000 -720 Descending Indianapolis Center
05:00PM 39.7575 -84.0125 308° West 197 227 2,900  Descending Indianapolis Center
05:00PM 39.7719 -84.0400 304° West 208 239 3,000 60 Climbing Indianapolis Center
05:01PM 39.7817 -84.0722 291° West 193 222 3,000 -120 Level Indianapolis Center
05:01PM 39.7883 -84.0992 288° West 171 197 2,900 -120 Descending Indianapolis Center
05:02PM 39.7989 -84.1325 292° West 182 209 2,900 60 Level Indianapolis Center
05:02PM 39.8067 -84.1586 291° West 172 198 3,000 60 Climbing Indianapolis Center
05:03PM 39.8136 -84.1867 288° West 176 203 3,000  Level Indianapolis Center
05:03PM 39.7714 -84.1839 177° South 164 189 3,000 60 Level Indianapolis Center
05:04PM 39.7475 -84.1833 179° South 179 206 3,100  Climbing Indianapolis Center
05:04PM 39.7250 -84.1858 185° South 164 189 3,000 -120 Descending Indianapolis Center
05:05PM 39.7033 -84.1875 183° South 166 191 3,000  Level Indianapolis Center
05:05PM 39.6853 -84.1861 177° South 144 166 3,000 -420 Level Indianapolis Center
05:06PM 39.6567 -84.1825 174° South 152 175 2,600 -600 Descending Indianapolis Center
05:06PM 39.6472 -84.1892 209° Southwest 136 157 2,400 -300 Descending Indianapolis Center
05:07PM 39.6264 -84.2089 216° Southwest 147 169 2,300 -180 Descending Indianapolis Center